sensor_id;sensor_type;location;lat;lon;timestamp;pressure;altitude;pressure_sealevel;temperature;humidity
36062;BME280;22123;52.412;20.970;2023-09-08T00:00:27;101705.72;;;13.82;100.00
36062;BME280;22123;52.412;20.970;2023-09-08T00:02:53;101685.69;;;13.67;100.00
36062;BME280;22123;52.412;20.970;2023-09-08T00:05:19;101668.75;;;13.56;100.00
36062;BME280;22123;52.412;20.970;2023-09-08T00:07:45;101667.56;;;13.59;100.00
36062;BME280;22123;52.412;20.970;2023-09-08T00:10:11;101699.09;;;13.77;100.00
36062;BME280;22123;52.412;20.970;2023-09-08T00:12:37;101664.50;;;13.54;100.00
36062;BME280;22123;52.412;20.970;2023-09-08T00:15:03;101697.56;;;13.74;100.00
36062;BME280;22123;52.412;20.970;2023-09-08T00:17:29;101667.19;;;13.54;100.00
36062;BME280;22123;52.412;20.970;2023-09-08T00:19:57;101692.97;;;13.66;100.00
36062;BME280;22123;52.412;20.970;2023-09-08T00:22:22;101664.31;;;13.47;100.00
36062;BME280;22123;52.412;20.970;2023-09-08T00:24:48;101690.59;;;13.63;100.00
36062;BME280;22123;52.412;20.970;2023-09-08T00:27:14;101684.97;;;13.56;100.00
36062;BME280;22123;52.412;20.970;2023-09-08T00:29:40;101660.31;;;13.33;100.00
36062;BME280;22123;52.412;20.970;2023-09-08T00:32:06;101692.91;;;13.50;100.00
36062;BME280;22123;52.412;20.970;2023-09-08T00:34:32;101665.06;;;13.31;100.00
36062;BME280;22123;52.412;20.970;2023-09-08T00:36:58;101679.25;;;13.33;100.00
36062;BME280;22123;52.412;20.970;2023-09-08T00:39:24;101694.56;;;13.43;100.00
36062;BME280;22123;52.412;20.970;2023-09-08T00:41:49;101679.75;;;13.29;100.00
36062;BME280;22123;52.412;20.970;2023-09-08T00:44:15;101697.22;;;13.34;100.00
36062;BME280;22123;52.412;20.970;2023-09-08T00:46:41;101683.44;;;13.28;100.00
36062;BME280;22123;52.412;20.970;2023-09-08T00:49:07;101697.22;;;13.34;100.00
36062;BME280;22123;52.412;20.970;2023-09-08T00:51:33;101706.72;;;13.38;100.00
36062;BME280;22123;52.412;20.970;2023-09-08T00:53:59;101696.34;;;13.34;100.00
36062;BME280;22123;52.412;20.970;2023-09-08T00:56:25;101701.47;;;13.37;100.00
36062;BME280;22123;52.412;20.970;2023-09-08T00:58:50;101696.47;;;13.32;100.00
36062;BME280;22123;52.412;20.970;2023-09-08T01:01:16;101665.09;;;13.05;100.00
36062;BME280;22123;52.412;20.970;2023-09-08T01:03:42;101698.84;;;13.27;100.00
36062;BME280;22123;52.412;20.970;2023-09-08T01:06:08;101697.63;;;13.21;100.00
36062;BME280;22123;52.412;20.970;2023-09-08T01:08:35;101645.41;;;12.95;100.00
36062;BME280;22123;52.412;20.970;2023-09-08T01:11:02;101651.81;;;12.94;100.00
36062;BME280;22123;52.412;20.970;2023-09-08T01:13:27;101670.00;;;13.10;100.00
36062;BME280;22123;52.412;20.970;2023-09-08T01:15:53;101690.50;;;13.20;100.00
36062;BME280;22123;52.412;20.970;2023-09-08T01:18:19;101669.44;;;13.06;100.00
36062;BME280;22123;52.412;20.970;2023-09-08T01:26:08;101690.00;;;13.17;100.00
36062;BME280;22123;52.412;20.970;2023-09-08T01:28:36;101672.88;;;13.08;100.00
36062;BME280;22123;52.412;20.970;2023-09-08T01:31:05;101685.75;;;13.14;100.00
36062;BME280;22123;52.412;20.970;2023-09-08T01:33:31;101617.59;;;12.76;100.00
36062;BME280;22123;52.412;20.970;2023-09-08T01:35:57;101677.78;;;13.13;100.00
36062;BME280;22123;52.412;20.970;2023-09-08T01:38:24;101643.88;;;12.92;100.00
36062;BME280;22123;52.412;20.970;2023-09-08T01:40:50;101646.56;;;12.92;100.00
36062;BME280;22123;52.412;20.970;2023-09-08T01:43:16;101660.13;;;13.00;100.00
36062;BME280;22123;52.412;20.970;2023-09-08T01:45:42;101648.13;;;12.95;100.00
36062;BME280;22123;52.412;20.970;2023-09-08T01:48:08;101645.72;;;12.92;100.00
36062;BME280;22123;52.412;20.970;2023-09-08T01:50:34;101641.34;;;12.91;100.00
36062;BME280;22123;52.412;20.970;2023-09-08T01:52:59;101630.13;;;12.85;100.00
36062;BME280;22123;52.412;20.970;2023-09-08T01:55:25;101656.59;;;13.00;100.00
36062;BME280;22123;52.412;20.970;2023-09-08T01:57:51;101633.84;;;12.84;100.00
36062;BME280;22123;52.412;20.970;2023-09-08T02:00:17;101659.44;;;12.98;100.00
36062;BME280;22123;52.412;20.970;2023-09-08T02:02:43;101624.50;;;12.79;100.00
36062;BME280;22123;52.412;20.970;2023-09-08T02:05:09;101637.41;;;12.85;100.00
36062;BME280;22123;52.412;20.970;2023-09-08T02:07:35;101651.44;;;12.88;100.00
36062;BME280;22123;52.412;20.970;2023-09-08T02:10:01;101672.28;;;12.96;100.00
36062;BME280;22123;52.412;20.970;2023-09-08T02:12:27;101592.25;;;12.51;100.00
36062;BME280;22123;52.412;20.970;2023-09-08T02:14:52;101679.69;;;12.94;100.00
36062;BME280;22123;52.412;20.970;2023-09-08T02:17:18;101656.81;;;12.80;100.00
36062;BME280;22123;52.412;20.970;2023-09-08T02:19:44;101665.97;;;12.87;100.00
36062;BME280;22123;52.412;20.970;2023-09-08T02:22:10;101651.69;;;12.77;100.00
36062;BME280;22123;52.412;20.970;2023-09-08T02:24:36;101671.38;;;12.87;100.00
36062;BME280;22123;52.412;20.970;2023-09-08T02:27:02;101677.06;;;12.84;100.00
36062;BME280;22123;52.412;20.970;2023-09-08T02:29:28;101634.53;;;12.60;100.00
36062;BME280;22123;52.412;20.970;2023-09-08T02:31:54;101646.25;;;12.69;100.00
36062;BME280;22123;52.412;20.970;2023-09-08T02:34:20;101629.28;;;12.59;100.00
36062;BME280;22123;52.412;20.970;2023-09-08T02:36:46;101632.19;;;12.65;100.00
36062;BME280;22123;52.412;20.970;2023-09-08T02:39:11;101665.91;;;12.79;100.00
36062;BME280;22123;52.412;20.970;2023-09-08T02:41:37;101639.13;;;12.68;100.00
36062;BME280;22123;52.412;20.970;2023-09-08T02:44:03;101649.16;;;12.76;100.00
36062;BME280;22123;52.412;20.970;2023-09-08T02:46:29;101628.81;;;12.63;100.00
36062;BME280;22123;52.412;20.970;2023-09-08T02:48:55;101630.50;;;12.64;100.00
36062;BME280;22123;52.412;20.970;2023-09-08T02:51:21;101640.44;;;12.64;100.00
36062;BME280;22123;52.412;20.970;2023-09-08T02:53:47;101637.22;;;12.60;100.00
36062;BME280;22123;52.412;20.970;2023-09-08T02:56:13;101627.94;;;12.63;100.00
36062;BME280;22123;52.412;20.970;2023-09-08T02:58:39;101634.53;;;12.60;100.00
36062;BME280;22123;52.412;20.970;2023-09-08T03:01:15;101649.28;;;12.66;100.00
36062;BME280;22123;52.412;20.970;2023-09-08T03:03:42;101629.28;;;12.59;100.00
36062;BME280;22123;52.412;20.970;2023-09-08T03:06:11;101604.50;;;12.45;100.00
36062;BME280;22123;52.412;20.970;2023-09-08T03:08:37;101582.78;;;12.29;100.00
36062;BME280;22123;52.412;20.970;2023-09-08T03:11:03;101601.97;;;12.44;100.00
36062;BME280;22123;52.412;20.970;2023-09-08T03:13:30;101602.44;;;12.39;100.00
36062;BME280;22123;52.412;20.970;2023-09-08T03:15:55;101632.81;;;12.59;100.00
36062;BME280;22123;52.412;20.970;2023-09-08T03:18:21;101610.78;;;12.46;100.00
36062;BME280;22123;52.412;20.970;2023-09-08T03:20:51;101591.28;;;12.34;100.00
36062;BME280;22123;52.412;20.970;2023-09-08T03:23:17;101605.84;;;12.41;100.00
36062;BME280;22123;52.412;20.970;2023-09-08T03:25:43;101623.13;;;12.48;100.00
36062;BME280;22123;52.412;20.970;2023-09-08T03:28:09;101633.47;;;12.53;100.00
36062;BME280;22123;52.412;20.970;2023-09-08T03:30:35;101603.09;;;12.33;100.00
36062;BME280;22123;52.412;20.970;2023-09-08T03:33:02;101616.94;;;12.38;100.00
36062;BME280;22123;52.412;20.970;2023-09-08T03:35:28;101602.53;;;12.29;100.00
36062;BME280;22123;52.412;20.970;2023-09-08T03:37:54;101598.47;;;12.25;100.00
36062;BME280;22123;52.412;20.970;2023-09-08T03:40:19;101616.94;;;12.38;100.00
36062;BME280;22123;52.412;20.970;2023-09-08T03:42:45;101633.38;;;12.45;100.00
36062;BME280;22123;52.412;20.970;2023-09-08T03:45:11;101628.06;;;12.35;100.00
36062;BME280;22123;52.412;20.970;2023-09-08T03:47:37;101559.75;;;11.98;100.00
36062;BME280;22123;52.412;20.970;2023-09-08T03:50:03;101571.16;;;12.10;100.00
36062;BME280;22123;52.412;20.970;2023-09-08T03:52:29;101613.81;;;12.25;100.00
36062;BME280;22123;52.412;20.970;2023-09-08T03:54:55;101605.19;;;12.21;100.00
36062;BME280;22123;52.412;20.970;2023-09-08T03:57:21;101600.22;;;12.16;100.00
36062;BME280;22123;52.412;20.970;2023-09-08T03:59:47;101616.34;;;12.26;100.00
36062;BME280;22123;52.412;20.970;2023-09-08T04:02:13;101615.81;;;12.23;100.00
36062;BME280;22123;52.412;20.970;2023-09-08T04:04:38;101607.31;;;12.17;100.00
36062;BME280;22123;52.412;20.970;2023-09-08T04:07:04;101591.03;;;12.09;100.00
36062;BME280;22123;52.412;20.970;2023-09-08T04:09:30;101602.91;;;12.16;100.00
36062;BME280;22123;52.412;20.970;2023-09-08T04:11:56;101619.03;;;12.26;100.00
36062;BME280;22123;52.412;20.970;2023-09-08T04:14:22;101578.66;;;11.98;100.00
36062;BME280;22123;52.412;20.970;2023-09-08T04:16:48;101574.09;;;11.99;100.00
36062;BME280;22123;52.412;20.970;2023-09-08T04:19:16;101589.38;;;12.08;100.00
36062;BME280;22123;52.412;20.970;2023-09-08T04:21:48;101556.25;;;11.88;100.00
36062;BME280;22123;52.412;20.970;2023-09-08T04:24:14;101601.78;;;12.19;100.00
36062;BME280;22123;52.412;20.970;2023-09-08T04:26:39;101601.09;;;12.17;100.00
36062;BME280;22123;52.412;20.970;2023-09-08T04:29:05;101607.31;;;12.17;100.00
36062;BME280;22123;52.412;20.970;2023-09-08T04:31:31;101593.06;;;12.07;100.00
36062;BME280;22123;52.412;20.970;2023-09-08T04:33:57;101599.53;;;12.14;100.00
36062;BME280;22123;52.412;20.970;2023-09-08T04:36:23;101587.50;;;12.09;100.00
36062;BME280;22123;52.412;20.970;2023-09-08T04:38:49;101596.53;;;12.17;100.00
36062;BME280;22123;52.412;20.970;2023-09-08T04:41:15;101587.34;;;12.10;100.00
36062;BME280;22123;52.412;20.970;2023-09-08T04:43:40;101554.66;;;11.95;100.00
36062;BME280;22123;52.412;20.970;2023-09-08T04:46:06;101606.50;;;12.17;100.00
36062;BME280;22123;52.412;20.970;2023-09-08T04:48:32;101598.38;;;12.17;100.00
36062;BME280;22123;52.412;20.970;2023-09-08T04:50:58;101621.28;;;12.31;100.00
36062;BME280;22123;52.412;20.970;2023-09-08T04:53:24;101562.63;;;11.97;100.00
36062;BME280;22123;52.412;20.970;2023-09-08T04:55:50;101587.44;;;12.18;100.00
36062;BME280;22123;52.412;20.970;2023-09-08T04:58:16;101609.00;;;12.37;100.00
36062;BME280;22123;52.412;20.970;2023-09-08T05:00:42;101565.06;;;12.08;100.00
36062;BME280;22123;52.412;20.970;2023-09-08T05:03:08;101589.91;;;12.30;100.00
36062;BME280;22123;52.412;20.970;2023-09-08T05:05:33;101563.50;;;12.24;100.00
36062;BME280;22123;52.412;20.970;2023-09-08T05:07:59;101575.53;;;12.29;100.00
36062;BME280;22123;52.412;20.970;2023-09-08T05:10:25;101586.09;;;12.41;100.00
36062;BME280;22123;52.412;20.970;2023-09-08T05:12:51;101605.97;;;12.58;100.00
36062;BME280;22123;52.412;20.970;2023-09-08T05:15:17;101582.75;;;12.47;100.00
36062;BME280;22123;52.412;20.970;2023-09-08T05:17:44;101568.41;;;12.46;100.00
36062;BME280;22123;52.412;20.970;2023-09-08T05:20:10;101612.81;;;12.70;100.00
36062;BME280;22123;52.412;20.970;2023-09-08T05:22:36;101551.53;;;12.44;100.00
36062;BME280;22123;52.412;20.970;2023-09-08T05:25:02;101612.88;;;12.78;100.00
36062;BME280;22123;52.412;20.970;2023-09-08T05:27:28;101578.31;;;12.64;100.00
36062;BME280;22123;52.412;20.970;2023-09-08T05:29:54;101615.31;;;12.90;100.00
36062;BME280;22123;52.412;20.970;2023-09-08T05:32:20;101548.69;;;12.54;100.00
36062;BME280;22123;52.412;20.970;2023-09-08T05:34:46;101598.09;;;12.91;100.00
36062;BME280;22123;52.412;20.970;2023-09-08T05:37:11;101573.72;;;12.82;100.00
36062;BME280;22123;52.412;20.970;2023-09-08T05:39:37;101586.97;;;12.94;100.00
36062;BME280;22123;52.412;20.970;2023-09-08T05:42:03;101616.59;;;13.12;100.00
36062;BME280;22123;52.412;20.970;2023-09-08T05:44:29;101611.41;;;13.18;100.00
36062;BME280;22123;52.412;20.970;2023-09-08T05:46:55;101604.63;;;13.14;100.00
36062;BME280;22123;52.412;20.970;2023-09-08T05:49:21;101593.81;;;13.14;100.00
36062;BME280;22123;52.412;20.970;2023-09-08T05:51:47;101584.53;;;13.17;100.00
36062;BME280;22123;52.412;20.970;2023-09-08T05:54:13;101611.72;;;13.42;100.00
36062;BME280;22123;52.412;20.970;2023-09-08T05:56:38;101607.50;;;13.47;100.00
36062;BME280;22123;52.412;20.970;2023-09-08T05:59:04;101603.78;;;13.48;100.00
36062;BME280;22123;52.412;20.970;2023-09-08T06:01:31;101608.06;;;13.59;100.00
36062;BME280;22123;52.412;20.970;2023-09-08T06:03:57;101611.09;;;13.64;100.00
36062;BME280;22123;52.412;20.970;2023-09-08T06:06:22;101596.06;;;13.62;100.00
36062;BME280;22123;52.412;20.970;2023-09-08T06:08:48;101565.78;;;13.50;100.00
36062;BME280;22123;52.412;20.970;2023-09-08T06:11:14;101580.16;;;13.67;100.00
36062;BME280;22123;52.412;20.970;2023-09-08T06:13:40;101589.50;;;13.81;100.00
36062;BME280;22123;52.412;20.970;2023-09-08T06:16:06;101575.16;;;13.80;100.00
36062;BME280;22123;52.412;20.970;2023-09-08T06:18:32;101603.56;;;14.09;100.00
36062;BME280;22123;52.412;20.970;2023-09-08T06:20:58;101564.31;;;13.97;100.00
36062;BME280;22123;52.412;20.970;2023-09-08T06:23:24;101599.22;;;14.33;100.00
36062;BME280;22123;52.412;20.970;2023-09-08T06:25:51;101549.59;;;14.16;100.00
36062;BME280;22123;52.412;20.970;2023-09-08T06:28:17;101586.00;;;14.46;100.00
36062;BME280;22123;52.412;20.970;2023-09-08T06:30:42;101596.00;;;14.62;100.00
36062;BME280;22123;52.412;20.970;2023-09-08T06:33:08;101582.59;;;14.60;100.00
36062;BME280;22123;52.412;20.970;2023-09-08T06:35:34;101582.75;;;14.75;100.00
36062;BME280;22123;52.412;20.970;2023-09-08T06:38:00;101596.47;;;14.90;100.00
36062;BME280;22123;52.412;20.970;2023-09-08T06:40:26;101584.06;;;14.96;100.00
36062;BME280;22123;52.412;20.970;2023-09-08T06:42:52;101587.28;;;15.08;100.00
36062;BME280;22123;52.412;20.970;2023-09-08T06:45:18;101574.06;;;15.05;100.00
36062;BME280;22123;52.412;20.970;2023-09-08T06:47:43;101568.28;;;15.08;100.00
36062;BME280;22123;52.412;20.970;2023-09-08T06:50:09;101593.44;;;15.33;100.00
36062;BME280;22123;52.412;20.970;2023-09-08T06:52:35;101604.63;;;15.38;100.00
36062;BME280;22123;52.412;20.970;2023-09-08T06:55:01;101593.53;;;15.48;100.00
36062;BME280;22123;52.412;20.970;2023-09-08T06:57:27;101569.34;;;15.38;100.00
36062;BME280;22123;52.412;20.970;2023-09-08T06:59:53;101593.47;;;15.64;100.00
36062;BME280;22123;52.412;20.970;2023-09-08T07:02:18;101562.66;;;15.49;100.00
36062;BME280;22123;52.412;20.970;2023-09-08T07:04:44;101592.19;;;15.75;100.00
36062;BME280;22123;52.412;20.970;2023-09-08T07:07:10;101558.94;;;15.50;100.00
36062;BME280;22123;52.412;20.970;2023-09-08T07:09:36;101591.53;;;15.81;100.00
36062;BME280;22123;52.412;20.970;2023-09-08T07:12:03;101568.41;;;15.86;100.00
36062;BME280;22123;52.412;20.970;2023-09-08T07:14:30;101552.44;;;15.91;100.00
36062;BME280;22123;52.412;20.970;2023-09-08T07:16:56;101551.03;;;15.95;100.00
36062;BME280;22123;52.412;20.970;2023-09-08T07:19:22;101582.75;;;16.17;100.00
36062;BME280;22123;52.412;20.970;2023-09-08T07:21:48;101567.06;;;16.05;100.00
36062;BME280;22123;52.412;20.970;2023-09-08T07:24:13;101585.13;;;16.21;100.00
36062;BME280;22123;52.412;20.970;2023-09-08T07:26:39;101537.16;;;15.90;100.00
36062;BME280;22123;52.412;20.970;2023-09-08T07:29:05;101590.03;;;16.25;100.00
36062;BME280;22123;52.412;20.970;2023-09-08T07:31:31;101576.31;;;16.19;100.00
36062;BME280;22123;52.412;20.970;2023-09-08T07:33:56;101590.66;;;16.27;100.00
36062;BME280;22123;52.412;20.970;2023-09-08T07:36:22;101565.97;;;16.37;100.00
36062;BME280;22123;52.412;20.970;2023-09-08T07:38:48;101582.16;;;16.68;100.00
36062;BME280;22123;52.412;20.970;2023-09-08T07:41:14;101557.50;;;16.70;100.00
36062;BME280;22123;52.412;20.970;2023-09-08T07:43:39;101589.03;;;16.94;100.00
36062;BME280;22123;52.412;20.970;2023-09-08T07:46:08;101562.75;;;16.86;100.00
36062;BME280;22123;52.412;20.970;2023-09-08T07:48:34;101567.66;;;17.06;100.00
36062;BME280;22123;52.412;20.970;2023-09-08T07:51:00;101592.78;;;17.38;100.00
36062;BME280;22123;52.412;20.970;2023-09-08T07:53:26;101569.91;;;17.32;100.00
36062;BME280;22123;52.412;20.970;2023-09-08T07:55:52;101555.91;;;17.35;100.00
36062;BME280;22123;52.412;20.970;2023-09-08T07:58:18;101583.22;;;17.64;100.00
36062;BME280;22123;52.412;20.970;2023-09-08T08:00:44;101587.53;;;17.73;100.00
36062;BME280;22123;52.412;20.970;2023-09-08T08:03:10;101563.13;;;17.65;100.00
36062;BME280;22123;52.412;20.970;2023-09-08T08:05:36;101591.63;;;17.84;100.00
36062;BME280;22123;52.412;20.970;2023-09-08T08:08:02;101575.28;;;17.84;100.00
36062;BME280;22123;52.412;20.970;2023-09-08T08:10:28;101553.09;;;17.87;100.00
36062;BME280;22123;52.412;20.970;2023-09-08T08:12:53;101530.78;;;17.92;100.00
36062;BME280;22123;52.412;20.970;2023-09-08T08:15:20;101574.28;;;18.28;100.00
36062;BME280;22123;52.412;20.970;2023-09-08T08:17:46;101540.41;;;18.16;100.00
36062;BME280;22123;52.412;20.970;2023-09-08T08:20:12;101550.34;;;18.23;100.00
36062;BME280;22123;52.412;20.970;2023-09-08T08:22:38;101537.34;;;18.25;100.00
36062;BME280;22123;52.412;20.970;2023-09-08T08:25:04;101570.63;;;18.42;100.00
36062;BME280;22123;52.412;20.970;2023-09-08T08:27:31;101584.69;;;18.46;100.00
36062;BME280;22123;52.412;20.970;2023-09-08T08:29:58;101530.41;;;18.23;100.00
36062;BME280;22123;52.412;20.970;2023-09-08T08:32:23;101554.06;;;18.44;100.00
36062;BME280;22123;52.412;20.970;2023-09-08T08:34:49;101547.13;;;18.41;100.00
36062;BME280;22123;52.412;20.970;2023-09-08T08:37:15;101575.38;;;18.62;100.00
36062;BME280;22123;52.412;20.970;2023-09-08T08:39:41;101560.72;;;18.63;100.00
36062;BME280;22123;52.412;20.970;2023-09-08T08:42:08;101518.44;;;18.52;100.00
36062;BME280;22123;52.412;20.970;2023-09-08T08:44:35;101553.13;;;18.87;100.00
36062;BME280;22123;52.412;20.970;2023-09-08T08:47:02;101546.16;;;18.84;100.00
36062;BME280;22123;52.412;20.970;2023-09-08T08:49:30;101549.34;;;18.88;100.00
36062;BME280;22123;52.412;20.970;2023-09-08T08:51:57;101567.06;;;19.05;100.00
36062;BME280;22123;52.412;20.970;2023-09-08T08:54:24;101524.72;;;18.81;100.00
36062;BME280;22123;52.412;20.970;2023-09-08T08:56:50;101554.66;;;18.96;100.00
36062;BME280;22123;52.412;20.970;2023-09-08T08:59:17;101527.44;;;18.81;100.00
36062;BME280;22123;52.412;20.970;2023-09-08T09:01:43;101535.25;;;18.84;100.00
36062;BME280;22123;52.412;20.970;2023-09-08T09:04:18;101518.88;;;18.84;100.00
36062;BME280;22123;52.412;20.970;2023-09-08T09:06:47;101508.16;;;18.83;100.00
36062;BME280;22123;52.412;20.970;2023-09-08T09:09:13;101515.97;;;18.86;100.00
36062;BME280;22123;52.412;20.970;2023-09-08T09:11:40;101544.63;;;19.10;100.00
36062;BME280;22123;52.412;20.970;2023-09-08T09:14:06;101558.75;;;19.20;100.00
36062;BME280;22123;52.412;20.970;2023-09-08T09:16:38;101513.53;;;18.98;100.00
36062;BME280;22123;52.412;20.970;2023-09-08T09:19:04;101528.47;;;19.08;100.00
36062;BME280;22123;52.412;20.970;2023-09-08T09:21:47;101520.28;;;19.02;100.00
36062;BME280;22123;52.412;20.970;2023-09-08T09:24:17;101513.94;;;19.01;100.00
36062;BME280;22123;52.412;20.970;2023-09-08T09:26:53;101534.19;;;19.20;100.00
36062;BME280;22123;52.412;20.970;2023-09-08T09:29:19;101509.03;;;19.25;100.00
36062;BME280;22123;52.412;20.970;2023-09-08T09:31:52;101516.88;;;19.55;100.00
36062;BME280;22123;52.412;20.970;2023-09-08T09:34:19;101541.13;;;19.91;100.00
36062;BME280;22123;52.412;20.970;2023-09-08T09:36:44;101510.41;;;19.76;100.00
36062;BME280;22123;52.412;20.970;2023-09-08T09:39:11;101496.09;;;19.74;100.00
36062;BME280;22123;52.412;20.970;2023-09-08T09:41:37;101486.94;;;20.02;100.00
36062;BME280;22123;52.412;20.970;2023-09-08T09:44:03;101448.66;;;19.82;100.00
36062;BME280;22123;52.412;20.970;2023-09-08T09:46:29;101510.03;;;20.26;100.00
36062;BME280;22123;52.412;20.970;2023-09-08T09:48:55;101516.31;;;20.46;100.00
36062;BME280;22123;52.412;20.970;2023-09-08T09:51:21;101526.38;;;20.59;100.00
36062;BME280;22123;52.412;20.970;2023-09-08T09:53:49;101481.44;;;20.35;100.00
36062;BME280;22123;52.412;20.970;2023-09-08T09:56:17;101518.00;;;20.67;100.00
36062;BME280;22123;52.412;20.970;2023-09-08T09:58:43;101504.31;;;20.74;100.00
36062;BME280;22123;52.412;20.970;2023-09-08T10:01:11;101496.06;;;20.88;100.00
36062;BME280;22123;52.412;20.970;2023-09-08T10:03:40;101493.91;;;20.96;100.00
36062;BME280;22123;52.412;20.970;2023-09-08T10:06:06;101522.69;;;21.19;100.00
36062;BME280;22123;52.412;20.970;2023-09-08T10:08:34;101519.50;;;21.22;100.00
36062;BME280;22123;52.412;20.970;2023-09-08T10:11:01;101446.56;;;20.96;100.00
36062;BME280;22123;52.412;20.970;2023-09-08T10:13:31;101512.22;;;21.48;100.00
36062;BME280;22123;52.412;20.970;2023-09-08T10:16:00;101424.59;;;21.09;100.00
36062;BME280;22123;52.412;20.970;2023-09-08T10:18:28;101483.78;;;21.81;100.00
36062;BME280;22123;52.412;20.970;2023-09-08T10:20:57;101478.28;;;22.56;100.00
36062;BME280;22123;52.412;20.970;2023-09-08T10:23:39;101494.94;;;24.13;100.00
36062;BME280;22123;52.412;20.970;2023-09-08T10:26:09;101486.31;;;25.22;100.00
36062;BME280;22123;52.412;20.970;2023-09-08T10:28:36;101485.81;;;25.37;100.00
36062;BME280;22123;52.412;20.970;2023-09-08T10:31:03;101485.56;;;25.26;100.00
36062;BME280;22123;52.412;20.970;2023-09-08T10:33:31;101500.34;;;25.20;100.00
36062;BME280;22123;52.412;20.970;2023-09-08T10:35:58;101469.56;;;24.82;100.00
36062;BME280;22123;52.412;20.970;2023-09-08T10:38:27;101496.78;;;25.08;100.00
36062;BME280;22123;52.412;20.970;2023-09-08T10:40:54;101479.66;;;25.46;100.00
36062;BME280;22123;52.412;20.970;2023-09-08T10:43:39;101449.25;;;26.87;100.00
36062;BME280;22123;52.412;20.970;2023-09-08T10:46:09;101487.63;;;28.20;100.00
36062;BME280;22123;52.412;20.970;2023-09-08T10:48:44;101484.28;;;29.24;100.00
36062;BME280;22123;52.412;20.970;2023-09-08T10:51:14;101449.63;;;29.32;100.00
36062;BME280;22123;52.412;20.970;2023-09-08T10:53:40;101479.94;;;29.90;84.75
36062;BME280;22123;52.412;20.970;2023-09-08T10:56:06;101456.50;;;30.63;66.06
36062;BME280;22123;52.412;20.970;2023-09-08T10:58:34;101451.91;;;31.43;55.28
36062;BME280;22123;52.412;20.970;2023-09-08T11:01:00;101437.66;;;31.84;54.85
36062;BME280;22123;52.412;20.970;2023-09-08T11:03:27;101477.50;;;32.38;50.30
36062;BME280;22123;52.412;20.970;2023-09-08T11:05:54;101441.44;;;31.64;52.27
36062;BME280;22123;52.412;20.970;2023-09-08T11:08:20;101452.75;;;31.38;53.17
36062;BME280;22123;52.412;20.970;2023-09-08T11:10:45;101435.03;;;30.74;56.13
36062;BME280;22123;52.412;20.970;2023-09-08T11:13:11;101428.81;;;30.27;58.37
36062;BME280;22123;52.412;20.970;2023-09-08T11:15:37;101428.59;;;29.62;57.90
36062;BME280;22123;52.412;20.970;2023-09-08T11:18:06;101441.81;;;29.08;71.94
36062;BME280;22123;52.412;20.970;2023-09-08T11:20:33;101411.56;;;28.33;68.45
36062;BME280;22123;52.412;20.970;2023-09-08T11:23:00;101417.06;;;27.85;70.43
36062;BME280;22123;52.412;20.970;2023-09-08T11:25:26;101447.09;;;27.17;68.48
36062;BME280;22123;52.412;20.970;2023-09-08T11:27:51;101417.34;;;26.75;75.80
36062;BME280;22123;52.412;20.970;2023-09-08T11:30:17;101451.75;;;26.89;79.33
36062;BME280;22123;52.412;20.970;2023-09-08T11:32:44;101436.78;;;26.63;82.86
36062;BME280;22123;52.412;20.970;2023-09-08T11:35:10;101457.06;;;26.51;89.61
36062;BME280;22123;52.412;20.970;2023-09-08T11:37:37;101427.69;;;26.23;86.60
36062;BME280;22123;52.412;20.970;2023-09-08T11:40:04;101435.47;;;26.09;87.69
36062;BME280;22123;52.412;20.970;2023-09-08T11:42:30;101427.03;;;25.82;91.58
36062;BME280;22123;52.412;20.970;2023-09-08T11:44:56;101411.97;;;25.39;92.51
36062;BME280;22123;52.412;20.970;2023-09-08T11:47:22;101450.72;;;25.49;97.43
36062;BME280;22123;52.412;20.970;2023-09-08T11:49:48;101417.47;;;25.10;100.00
36062;BME280;22123;52.412;20.970;2023-09-08T11:52:14;101454.00;;;25.46;90.92
36062;BME280;22123;52.412;20.970;2023-09-08T11:54:40;101408.81;;;25.18;94.36
36062;BME280;22123;52.412;20.970;2023-09-08T11:57:06;101419.50;;;25.14;100.00
36062;BME280;22123;52.412;20.970;2023-09-08T11:59:33;101421.03;;;24.93;100.00
36062;BME280;22123;52.412;20.970;2023-09-08T12:02:00;101434.22;;;24.91;100.00
36062;BME280;22123;52.412;20.970;2023-09-08T12:04:26;101431.72;;;24.78;100.00
36062;BME280;22123;52.412;20.970;2023-09-08T12:06:53;101383.13;;;24.19;100.00
36062;BME280;22123;52.412;20.970;2023-09-08T12:09:22;101410.03;;;24.29;100.00
36062;BME280;22123;52.412;20.970;2023-09-08T12:11:49;101414.13;;;24.15;100.00
36062;BME280;22123;52.412;20.970;2023-09-08T12:14:15;101425.94;;;24.15;100.00
36062;BME280;22123;52.412;20.970;2023-09-08T12:16:42;101422.84;;;24.11;100.00
36062;BME280;22123;52.412;20.970;2023-09-08T12:19:09;101427.63;;;24.04;100.00
36062;BME280;22123;52.412;20.970;2023-09-08T12:21:55;101421.88;;;24.06;100.00
36062;BME280;22123;52.412;20.970;2023-09-08T12:24:47;101424.03;;;24.04;100.00
36062;BME280;22123;52.412;20.970;2023-09-08T12:27:14;101387.63;;;23.78;100.00
36062;BME280;22123;52.412;20.970;2023-09-08T12:29:40;101391.47;;;23.77;100.00
36062;BME280;22123;52.412;20.970;2023-09-08T12:32:06;101395.78;;;23.73;100.00